Time;durP1;ratioP1;P1;durP2;ratioP2;P2;SDS_P1;SDS_P2;PMS_P1;PMS_P2;Temp;Humidity;BMP_temperature;BMP_pressure;BME280_temperature;BME280_humidity;BME280_pressure;Samples;Min_cycle;Max_cycle;Signal;HPM_P1;HPM_P2
2022/09/21 00:02:25;;;;;;;7.60;3.85;;;12.10;99.90;;;;;;5052301;28;20021;-45
2022/09/21 00:04:50;;;;;;;8.45;3.67;;;12.10;99.90;;;;;;5052150;28;20110;-52
2022/09/21 00:07:16;;;;;;;8.65;3.80;;;12.10;99.90;;;;;;5051671;28;20051;-48
2022/09/21 00:09:42;;;;;;;9.70;3.53;;;12.00;99.90;;;;;;5050542;28;20574;-45
2022/09/21 00:12:08;;;;;;;6.22;3.03;;;12.00;99.90;;;;;;5052301;28;20025;-48
2022/09/21 00:14:34;;;;;;;5.80;3.60;;;12.10;99.90;;;;;;5052209;28;20094;-45
2022/09/21 00:16:59;;;;;;;7.07;3.28;;;12.00;99.90;;;;;;5050843;28;20467;-49
2022/09/21 00:19:25;;;;;;;6.50;3.20;;;12.00;99.90;;;;;;5052009;28;20529;-52
2022/09/21 00:21:54;;;;;;;6.30;3.10;;;12.00;99.90;;;;;;5051742;28;20055;-45
2022/09/21 00:24:20;;;;;;;7.03;3.40;;;11.90;99.90;;;;;;5052011;28;20472;-48
2022/09/21 00:26:45;;;;;;;6.22;3.45;;;11.90;99.90;;;;;;5051953;28;20029;-51
2022/09/21 00:29:12;;;;;;;7.00;3.58;;;11.80;99.90;;;;;;5051696;28;20025;-53
2022/09/21 00:31:38;;;;;;;7.05;3.28;;;11.70;99.90;;;;;;5051933;28;20029;-52
2022/09/21 00:34:06;;;;;;;5.72;3.10;;;11.70;99.90;;;;;;5051591;28;20021;-47
2022/09/21 00:36:32;;;;;;;6.07;3.35;;;11.60;99.90;;;;;;5051480;28;20523;-47
2022/09/21 00:39:00;;;;;;;9.55;3.25;;;11.50;99.90;;;;;;5051566;28;20029;-48
2022/09/21 00:41:27;;;;;;;6.72;3.20;;;11.40;99.90;;;;;;5051549;28;20025;-49
2022/09/21 00:44:32;;;;;;;8.02;3.10;;;11.40;99.90;;;;;;5051755;28;20029;-50
2022/09/21 00:47:27;;;;;;;7.82;2.83;;;11.40;99.90;;;;;;5010398;28;20523;-53
2022/09/21 00:49:54;;;;;;;6.90;3.00;;;11.40;99.90;;;;;;5022507;28;20075;-53
2022/09/21 00:52:23;;;;;;;7.07;2.80;;;11.40;99.90;;;;;;5051401;28;20483;-56
2022/09/21 00:54:56;;;;;;;8.85;3.05;;;11.30;99.90;;;;;;5051158;28;20028;-53
2022/09/21 00:57:26;;;;;;;4.93;2.70;;;11.30;99.90;;;;;;5051175;28;20395;-48
2022/09/21 00:59:54;;;;;;;;;;;11.20;99.90;;;;;;5051623;28;20013;-46
2022/09/21 01:02:21;;;;;;;6.72;3.00;;;11.20;99.90;;;;;;5051021;28;19968;-49
2022/09/21 01:04:47;;;;;;;8.63;3.35;;;11.10;99.90;;;;;;5050529;28;20020;-46
2022/09/21 01:07:18;;;;;;;5.78;3.00;;;11.10;99.90;;;;;;5051077;28;20115;-45
2022/09/21 01:09:48;;;;;;;7.45;2.55;;;11.10;99.90;;;;;;5050605;28;20063;-50
2022/09/21 01:12:49;;;;;;;6.53;3.00;;;11.10;99.90;;;;;;5050633;28;20056;-50
2022/09/21 01:15:20;;;;;;;7.28;3.35;;;11.10;99.90;;;;;;4983297;28;20092;-50
2022/09/21 01:18:09;;;;;;;5.40;2.90;;;11.10;99.90;;;;;;5028861;28;20037;-55
2022/09/21 01:20:47;;;;;;;5.28;2.92;;;11.10;99.90;;;;;;5050536;28;20529;-49
2022/09/21 01:23:27;;;;;;;6.47;3.10;;;11.00;99.90;;;;;;5051034;28;20569;-47
2022/09/21 01:26:13;;;;;;;6.70;2.80;;;11.00;99.90;;;;;;5049490;28;20449;-48
2022/09/21 01:29:03;;;;;;;5.93;2.38;;;11.00;99.90;;;;;;5050721;28;20499;-51
2022/09/21 01:31:35;;;;;;;;;;;11.00;99.90;;;;;;5051320;28;20033;-49
2022/09/21 01:34:08;;;;;;;4.63;2.20;;;10.90;99.90;;;;;;5050684;28;19904;-51
2022/09/21 01:36:36;;;;;;;4.13;2.35;;;11.00;99.90;;;;;;5050915;28;20033;-49
2022/09/21 01:39:10;;;;;;;5.55;2.60;;;11.00;99.90;;;;;;5050735;28;20059;-52
2022/09/21 01:41:38;;;;;;;5.28;2.75;;;11.00;99.90;;;;;;5050794;28;20025;-46
2022/09/21 01:44:12;;;;;;;6.53;2.45;;;10.90;99.90;;;;;;5050882;28;20032;-52
2022/09/21 01:46:39;;;;;;;4.53;2.63;;;10.90;99.90;;;;;;5050608;28;20045;-48
2022/09/21 01:49:14;;;;;;;6.35;2.88;;;11.00;99.90;;;;;;5050609;28;20032;-46
2022/09/21 01:51:44;;;;;;;5.00;2.45;;;10.90;99.90;;;;;;5050485;28;20033;-47
2022/09/21 01:54:18;;;;;;;6.82;2.67;;;10.90;99.90;;;;;;5050586;28;20025;-48
2022/09/21 01:57:08;;;;;;;4.88;2.80;;;10.90;99.90;;;;;;5050724;28;20037;-48
2022/09/21 01:59:56;;;;;;;7.10;2.90;;;10.80;99.90;;;;;;5050380;28;20070;-48
2022/09/21 02:02:49;;;;;;;5.80;2.70;;;10.80;99.90;;;;;;5050140;28;20467;-47
2022/09/21 02:05:18;;;;;;;6.75;3.15;;;10.80;99.90;;;;;;5050582;28;20029;-55
2022/09/21 02:07:45;;;;;;;;;;;10.80;99.90;;;;;;5054557;28;20028;-51
2022/09/21 02:10:17;;;;;;;5.93;2.95;;;10.80;99.90;;;;;;5054204;28;19913;-48
2022/09/21 02:12:44;;;;;;;7.95;3.00;;;10.70;99.90;;;;;;5054427;28;20151;-46
2022/09/21 02:15:10;;;;;;;5.80;2.90;;;10.70;99.90;;;;;;5054258;28;20037;-49
2022/09/21 02:18:17;;;;;;;6.72;3.40;;;10.80;99.90;;;;;;5054426;28;20024;-52
2022/09/21 02:20:51;;;;;;;5.90;3.03;;;10.70;99.90;;;;;;5024040;28;20171;-46
2022/09/21 02:23:44;;;;;;;7.72;3.30;;;10.60;99.90;;;;;;5054239;28;20036;-46
2022/09/21 02:26:23;;;;;;;7.82;3.17;;;10.70;99.90;;;;;;5033704;28;20048;-46
2022/09/21 02:29:00;;;;;;;5.53;2.83;;;10.70;99.90;;;;;;5054006;28;20021;-46
2022/09/21 02:31:47;;;;;;;7.47;2.90;;;10.60;99.90;;;;;;5053905;28;20041;-46
2022/09/21 02:34:23;;;;;;;5.13;3.20;;;10.50;99.90;;;;;;5053923;28;20029;-47
2022/09/21 02:36:59;;;;;;;7.18;2.80;;;10.50;99.90;;;;;;5053865;28;20040;-49
2022/09/21 02:39:33;;;;;;;5.88;2.80;;;10.50;99.90;;;;;;5053697;28;20017;-46
2022/09/21 02:42:15;;;;;;;5.20;2.42;;;10.50;99.90;;;;;;5053747;28;20029;-51
2022/09/21 02:44:53;;;;;;;6.53;3.00;;;10.40;99.90;;;;;;5053888;28;20017;-46
2022/09/21 02:47:26;;;;;;;6.88;2.88;;;10.40;99.90;;;;;;5052200;28;20047;-51
2022/09/21 02:49:57;;;;;;;5.80;2.50;;;10.30;99.90;;;;;;5053550;28;20187;-51
2022/09/21 02:52:24;;;;;;;3.67;2.10;;;10.30;99.90;;;;;;5053708;28;20028;-48
2022/09/21 02:54:52;;;;;;;4.93;2.55;;;10.30;99.90;;;;;;5053388;28;20123;-46
2022/09/21 02:57:20;;;;;;;5.18;2.25;;;10.30;99.90;;;;;;5053196;28;20369;-52
2022/09/21 02:59:46;;;;;;;5.20;2.38;;;10.30;99.90;;;;;;5053254;28;20017;-49
2022/09/21 03:02:12;;;;;;;6.55;2.65;;;10.20;99.90;;;;;;5053054;28;20039;-51
2022/09/21 03:04:40;;;;;;;4.07;2.40;;;10.20;99.90;;;;;;5052811;28;20419;-50
2022/09/21 03:07:06;;;;;;;4.93;2.53;;;10.20;99.90;;;;;;5053261;28;20033;-54
2022/09/21 03:09:32;;;;;;;3.17;1.95;;;10.10;99.90;;;;;;5047960;28;20033;-49
2022/09/21 03:11:58;;;;;;;6.93;2.30;;;10.10;99.90;;;;;;5050035;28;20189;-50
2022/09/21 03:14:23;;;;;;;4.80;2.22;;;10.00;99.90;;;;;;5053133;28;20025;-48
2022/09/21 03:16:49;;;;;;;4.50;2.22;;;10.00;99.90;;;;;;5052802;28;20033;-48
2022/09/21 03:19:15;;;;;;;4.85;2.38;;;10.00;99.90;;;;;;5053122;28;20031;-46
2022/09/21 03:21:41;;;;;;;3.25;1.83;;;9.90;99.90;;;;;;5053405;28;20036;-49
2022/09/21 03:24:06;;;;;;;8.25;2.35;;;9.80;99.90;;;;;;5052113;28;20032;-46
2022/09/21 03:26:33;;;;;;;4.53;2.22;;;9.80;99.90;;;;;;5052700;28;20029;-47
2022/09/21 03:28:58;;;;;;;4.10;2.10;;;9.80;99.90;;;;;;5052714;28;20074;-52
2022/09/21 03:31:24;;;;;;;4.18;2.10;;;9.90;99.90;;;;;;5052938;28;20037;-53
2022/09/21 03:33:50;;;;;;;5.72;2.38;;;9.80;99.90;;;;;;5052828;28;20029;-47
2022/09/21 03:36:16;;;;;;;4.82;1.98;;;9.80;99.90;;;;;;5052771;28;20064;-46
2022/09/21 03:38:41;;;;;;;3.85;1.98;;;9.80;99.90;;;;;;5052795;28;20049;-50
2022/09/21 03:41:07;;;;;;;3.72;1.77;;;9.80;99.90;;;;;;5052436;28;20033;-51
2022/09/21 03:43:32;;;;;;;4.40;2.10;;;9.80;99.90;;;;;;5053135;28;20017;-50
2022/09/21 03:45:58;;;;;;;5.90;2.22;;;9.80;99.90;;;;;;5052873;28;20032;-50
2022/09/21 03:48:24;;;;;;;3.72;2.10;;;9.80;99.90;;;;;;5052161;28;20044;-46
2022/09/21 03:50:50;;;;;;;3.78;2.05;;;9.80;99.90;;;;;;5051235;28;20112;-49
2022/09/21 03:53:16;;;;;;;4.57;2.17;;;9.70;99.90;;;;;;5052169;28;20470;-46
2022/09/21 03:55:42;;;;;;;4.80;2.50;;;9.70;99.90;;;;;;5052326;28;20044;-46
2022/09/21 03:58:08;;;;;;;3.58;2.15;;;9.70;99.90;;;;;;5052308;28;20025;-48
2022/09/21 04:00:34;;;;;;;5.25;2.60;;;9.70;99.90;;;;;;5052092;28;20050;-48
2022/09/21 04:03:00;;;;;;;6.68;2.60;;;9.70;99.90;;;;;;5051285;28;20021;-49
2022/09/21 04:05:27;;;;;;;5.68;2.60;;;9.70;99.90;;;;;;5051826;28;20047;-46
2022/09/21 04:07:54;;;;;;;6.28;2.53;;;9.70;99.90;;;;;;5052162;28;20220;-46
2022/09/21 04:10:25;;;;;;;5.18;2.58;;;9.60;99.90;;;;;;5051919;28;20032;-48
2022/09/21 04:12:52;;;;;;;5.20;2.55;;;9.60;99.90;;;;;;5052082;28;20108;-50
2022/09/21 04:15:18;;;;;;;8.00;3.55;;;9.60;99.90;;;;;;5051816;28;20029;-48
2022/09/21 04:17:45;;;;;;;7.25;2.50;;;9.60;99.90;;;;;;5052044;28;20045;-48
2022/09/21 04:20:10;;;;;;;5.65;2.40;;;9.60;99.90;;;;;;5051633;28;20029;-46
2022/09/21 04:22:37;;;;;;;4.70;2.65;;;9.60;99.90;;;;;;5051502;28;20120;-46
2022/09/21 04:25:05;;;;;;;5.28;2.38;;;9.60;99.90;;;;;;5051830;28;20110;-46
2022/09/21 04:27:32;;;;;;;4.27;2.43;;;9.60;99.90;;;;;;5051608;28;20048;-48
2022/09/21 04:29:58;;;;;;;8.27;2.47;;;9.60;99.90;;;;;;5051026;28;20499;-49
2022/09/21 04:32:24;;;;;;;4.90;2.53;;;9.60;99.90;;;;;;5051596;28;20027;-48
2022/09/21 04:34:50;;;;;;;3.85;2.20;;;9.60;99.90;;;;;;5051722;28;20104;-50
2022/09/21 04:37:16;;;;;;;5.88;2.67;;;9.60;99.90;;;;;;5051246;28;20025;-53
2022/09/21 04:39:41;;;;;;;6.03;3.20;;;9.60;99.90;;;;;;5051108;28;20361;-51
2022/09/21 04:42:08;;;;;;;7.00;3.15;;;9.60;99.90;;;;;;5051077;28;20025;-45
2022/09/21 04:44:34;;;;;;;8.85;3.97;;;9.60;99.90;;;;;;5050769;28;20503;-52
2022/09/21 04:46:59;;;;;;;6.97;3.78;;;9.60;99.90;;;;;;5050659;28;20037;-55
2022/09/21 04:49:25;;;;;;;6.70;3.45;;;9.60;99.90;;;;;;5050773;28;20051;-52
2022/09/21 04:51:51;;;;;;;6.70;3.55;;;9.60;99.90;;;;;;5050677;28;20112;-49
2022/09/21 04:54:17;;;;;;;8.70;3.53;;;9.60;99.90;;;;;;5051462;28;20033;-50
2022/09/21 04:56:42;;;;;;;5.70;3.50;;;9.50;99.90;;;;;;5051244;28;20021;-48
2022/09/21 04:59:08;;;;;;;5.45;3.28;;;9.50;99.90;;;;;;5051412;28;20017;-46
2022/09/21 05:01:34;;;;;;;6.20;3.35;;;9.60;99.90;;;;;;5051287;28;20464;-49
2022/09/21 05:04:01;;;;;;;8.30;3.92;;;9.60;99.90;;;;;;5050856;28;20377;-46
2022/09/21 05:06:28;;;;;;;6.82;4.22;;;9.60;99.90;;;;;;5050375;28;20024;-45
2022/09/21 05:11:38;;;;;;;6.85;4.00;;;9.50;99.90;;;;;;5050411;28;20549;-52
2022/09/21 05:14:04;;;;;;;5.93;3.63;;;9.50;99.90;;;;;;5050967;28;20104;-47
2022/09/21 05:16:29;;;;;;;6.65;3.40;;;9.50;99.90;;;;;;5050810;28;20388;-47
2022/09/21 05:18:55;;;;;;;7.13;3.20;;;9.50;99.90;;;;;;5050903;28;20028;-46
2022/09/21 05:21:21;;;;;;;7.90;3.10;;;9.50;99.90;;;;;;5050539;28;20154;-48
2022/09/21 05:23:46;;;;;;;6.32;3.17;;;9.40;99.90;;;;;;5050358;28;20033;-49
2022/09/21 05:26:12;;;;;;;6.60;3.00;;;9.40;99.90;;;;;;5046856;28;20029;-45
2022/09/21 05:28:38;;;;;;;6.55;2.97;;;9.40;99.90;;;;;;5050211;28;20118;-45
2022/09/21 05:31:17;;;;;;;6.55;3.20;;;9.40;99.90;;;;;;5048468;28;20075;-48
2022/09/21 05:33:55;;;;;;;6.35;2.42;;;9.40;99.90;;;;;;5050923;28;20056;-51
2022/09/21 05:36:46;;;;;;;4.38;2.83;;;9.30;99.90;;;;;;5050996;28;20111;-46
2022/09/21 05:39:12;;;;;;;5.40;2.78;;;9.20;99.90;;;;;;5050839;28;20033;-45
2022/09/21 05:41:38;;;;;;;5.18;2.65;;;9.20;99.90;;;;;;5052514;28;20021;-48
2022/09/21 05:44:04;;;;;;;5.97;2.50;;;9.20;99.90;;;;;;5054784;28;20024;-48
2022/09/21 05:47:02;;;;;;;4.47;2.42;;;9.10;99.90;;;;;;5054618;28;20025;-46
2022/09/21 05:49:37;;;;;;;4.60;2.77;;;9.10;99.90;;;;;;5050939;28;20033;-48
2022/09/21 05:52:25;;;;;;;3.97;2.50;;;9.10;99.90;;;;;;5052459;28;20458;-51
2022/09/21 05:54:56;;;;;;;6.28;2.70;;;9.10;99.90;;;;;;5054624;28;20039;-48
2022/09/21 05:57:48;;;;;;;4.35;2.50;;;9.10;99.90;;;;;;5054750;28;20392;-46
2022/09/21 06:00:18;;;;;;;5.10;2.15;;;9.10;99.90;;;;;;5054621;28;20100;-50
2022/09/21 06:02:49;;;;;;;3.78;2.17;;;9.10;99.90;;;;;;5054472;28;20412;-47
2022/09/21 06:05:16;;;;;;;5.30;2.30;;;9.10;99.90;;;;;;5054415;28;20577;-48
2022/09/21 06:07:42;;;;;;;5.95;2.55;;;9.10;99.90;;;;;;5054396;28;20151;-47
2022/09/21 06:10:08;;;;;;;5.57;2.63;;;9.10;99.90;;;;;;5054108;28;20111;-46
2022/09/21 06:12:34;;;;;;;6.70;2.55;;;9.20;99.90;;;;;;5054280;28;20021;-49
2022/09/21 06:15:00;;;;;;;5.05;2.60;;;9.20;99.90;;;;;;5054356;28;20023;-47
2022/09/21 06:17:26;;;;;;;5.65;3.00;;;9.30;99.90;;;;;;5054455;28;20020;-46
2022/09/21 06:19:52;;;;;;;5.50;3.10;;;9.30;99.90;;;;;;5054354;28;20100;-45
2022/09/21 06:22:18;;;;;;;5.53;3.40;;;9.40;99.90;;;;;;5053929;28;20099;-47
2022/09/21 06:24:44;;;;;;;5.35;3.33;;;9.40;99.90;;;;;;5051672;28;20457;-46
2022/09/21 06:27:10;;;;;;;8.40;3.50;;;9.50;99.90;;;;;;5053638;28;20436;-46
2022/09/21 06:29:35;;;;;;;5.13;3.15;;;9.50;99.90;;;;;;5051884;28;20376;-47
2022/09/21 06:32:02;;;;;;;4.47;2.78;;;9.60;99.90;;;;;;5053242;28;20048;-47
2022/09/21 06:34:28;;;;;;;5.07;2.97;;;9.60;99.90;;;;;;5053111;28;20251;-51
2022/09/21 06:36:53;;;;;;;6.07;3.38;;;9.70;99.90;;;;;;5053324;28;20489;-46
2022/09/21 06:39:19;;;;;;;7.00;4.00;;;9.70;99.90;;;;;;5053263;28;20017;-51
2022/09/21 06:41:45;;;;;;;4.43;3.13;;;9.70;99.90;;;;;;5052221;28;20502;-48
2022/09/21 06:44:10;;;;;;;5.70;2.65;;;9.70;99.90;;;;;;5053057;28;20014;-46
2022/09/21 06:46:36;;;;;;;8.35;4.18;;;9.80;99.90;;;;;;5052602;28;20110;-46
2022/09/21 06:49:02;;;;;;;6.00;3.45;;;9.90;99.90;;;;;;5053154;28;20052;-46
2022/09/21 06:51:27;;;;;;;6.68;3.28;;;9.90;99.90;;;;;;5052203;28;20067;-46
2022/09/21 06:53:55;;;;;;;7.13;3.78;;;10.00;99.90;;;;;;5052910;28;20424;-47
2022/09/21 06:56:20;;;;;;;10.80;3.75;;;10.00;99.90;;;;;;5052458;28;20025;-46
2022/09/21 06:58:47;;;;;;;5.70;3.60;;;10.10;99.90;;;;;;5053924;28;20083;-48
2022/09/21 07:01:14;;;;;;;6.10;3.20;;;10.20;99.90;;;;;;5052859;28;20082;-49
2022/09/21 07:03:41;;;;;;;7.00;3.72;;;10.40;99.90;;;;;;5051204;28;20021;-48
2022/09/21 07:06:07;;;;;;;7.03;3.65;;;10.40;99.90;;;;;;5052581;28;20029;-54
2022/09/21 07:08:34;;;;;;;8.75;3.80;;;10.50;99.90;;;;;;5052714;28;20048;-52
2022/09/21 07:11:01;;;;;;;6.65;3.95;;;10.60;99.90;;;;;;5052615;28;20506;-45
2022/09/21 07:13:27;;;;;;;6.90;3.53;;;10.70;99.90;;;;;;5052849;28;20021;-50
2022/09/21 07:15:53;;;;;;;6.22;4.03;;;10.80;99.90;;;;;;5051733;28;20021;-50
2022/09/21 07:18:20;;;;;;;7.72;3.55;;;10.90;99.90;;;;;;5045127;28;20499;-47
2022/09/21 07:20:46;;;;;;;7.10;4.00;;;11.00;99.90;;;;;;5050064;28;20068;-46
2022/09/21 07:23:14;;;;;;;7.22;3.60;;;11.10;99.90;;;;;;5055173;28;20031;-51
2022/09/21 07:25:43;;;;;;;8.98;4.43;;;11.30;99.90;;;;;;5052412;28;20032;-49
2022/09/21 07:28:10;;;;;;;8.40;3.83;;;11.60;99.90;;;;;;5051585;28;20068;-48
2022/09/21 07:30:37;;;;;;;7.53;3.80;;;11.80;99.90;;;;;;5050643;28;20460;-50
2022/09/21 07:33:04;;;;;;;8.95;3.50;;;12.10;99.90;;;;;;5051072;28;20021;-52
2022/09/21 07:35:29;;;;;;;7.97;3.78;;;12.50;99.90;;;;;;5052795;28;20060;-44
2022/09/21 07:37:59;;;;;;;7.68;4.22;;;12.70;99.90;;;;;;5051416;28;20079;-51
2022/09/21 07:40:26;;;;;;;7.60;3.80;;;12.90;99.90;;;;;;5052332;28;20033;-45
2022/09/21 07:42:51;;;;;;;8.18;3.95;;;13.20;99.90;;;;;;5052314;28;20028;-46
2022/09/21 07:45:17;;;;;;;6.68;4.22;;;13.70;99.90;;;;;;5051468;28;20033;-45
2022/09/21 07:47:44;;;;;;;6.40;4.13;;;14.50;99.90;;;;;;5044506;28;20087;-46
2022/09/21 07:50:10;;;;;;;7.88;4.10;;;15.60;99.90;;;;;;5048703;28;20461;-47
2022/09/21 07:52:36;;;;;;;7.40;3.92;;;16.70;99.90;;;;;;5049826;28;20057;-44
2022/09/21 07:55:01;;;;;;;7.13;3.88;;;17.80;99.90;;;;;;5051542;28;20515;-48
2022/09/21 08:00:12;;;;;;;5.38;3.25;;;19.80;99.90;;;;;;5048003;28;20111;-47
2022/09/21 08:02:38;;;;;;;7.78;3.30;;;20.60;99.90;;;;;;5047633;28;20480;-48
2022/09/21 08:05:03;;;;;;;6.13;2.90;;;21.30;99.90;;;;;;5044691;28;20040;-47
2022/09/21 08:07:30;;;;;;;4.65;3.00;;;21.90;99.90;;;;;;5045481;28;20048;-53
2022/09/21 08:09:55;;;;;;;6.93;3.25;;;22.70;97.30;;;;;;5050980;28;20036;-52
2022/09/21 08:12:21;;;;;;;4.25;3.10;;;22.80;95.30;;;;;;5050355;28;20098;-49
2022/09/21 08:14:47;;;;;;;4.75;3.10;;;23.20;95.70;;;;;;5051125;28;20017;-50
2022/09/21 08:17:13;;;;;;;6.50;3.40;;;23.90;94.40;;;;;;5051673;28;20029;-48
2022/09/21 08:19:39;;;;;;;6.40;2.85;;;24.70;92.70;;;;;;5052183;28;20063;-51
2022/09/21 08:22:05;;;;;;;5.05;2.80;;;25.40;90.10;;;;;;5051708;28;20033;-48
2022/09/21 08:24:31;;;;;;;4.55;2.47;;;26.00;90.10;;;;;;5051394;28;20032;-52
2022/09/21 08:26:58;;;;;;;6.10;3.13;;;26.80;90.30;;;;;;5049120;28;20033;-49
2022/09/21 08:29:24;;;;;;;8.20;2.90;;;27.40;84.80;;;;;;5049642;28;20062;-49
2022/09/21 08:31:51;;;;;;;7.10;3.40;;;28.60;80.20;;;;;;5049492;28;20029;-47
2022/09/21 08:34:18;;;;;;;6.85;3.20;;;29.20;79.00;;;;;;5047345;28;20024;-51
2022/09/21 08:36:44;;;;;;;6.25;3.03;;;29.80;74.30;;;;;;5049353;28;20514;-46
2022/09/21 08:39:11;;;;;;;8.40;2.88;;;30.50;68.90;;;;;;5049682;28;20106;-46
2022/09/21 08:41:52;;;;;;;5.20;3.15;;;31.10;65.70;;;;;;5044867;28;20043;-48
2022/09/21 08:44:23;;;;;;;6.07;2.78;;;31.70;64.50;;;;;;5047762;28;20094;-46
2022/09/21 08:47:02;;;;;;;4.80;2.70;;;32.00;59.60;;;;;;5050577;28;20099;-49
2022/09/21 08:49:32;;;;;;;9.32;2.80;;;31.90;61.10;;;;;;5050575;28;20024;-46
2022/09/21 08:52:03;;;;;;;4.90;2.50;;;31.60;59.50;;;;;;5048709;28;20048;-43
2022/09/21 08:54:48;;;;;;;5.32;2.40;;;31.40;59.30;;;;;;5040447;28;20029;-49
2022/09/21 08:57:15;;;;;;;4.70;2.30;;;31.30;60.40;;;;;;5048861;28;20116;-46
2022/09/21 08:59:43;;;;;;;8.82;2.40;;;31.30;60.10;;;;;;5047964;28;20036;-47
2022/09/21 09:02:33;;;;;;;5.65;2.15;;;30.80;59.80;;;;;;5049537;28;20029;-45
2022/09/21 09:05:26;;;;;;;6.10;2.15;;;30.70;59.50;;;;;;5041559;28;20037;-48
2022/09/21 09:08:29;;;;;;;3.88;1.70;;;30.60;57.60;;;;;;5048904;28;20021;-44
2022/09/21 09:11:10;;;;;;;3.13;1.88;;;30.30;56.40;;;;;;5044916;28;20041;-45
2022/09/21 09:13:41;;;;;;;2.88;1.85;;;30.70;57.80;;;;;;5044176;28;20036;-46
2022/09/21 09:16:22;;;;;;;4.55;1.95;;;31.70;55.50;;;;;;5049364;28;20514;-46
2022/09/21 09:19:04;;;;;;;2.55;1.80;;;32.20;53.10;;;;;;5042901;28;20029;-47
2022/09/21 09:21:41;;;;;;;4.53;2.10;;;32.00;53.90;;;;;;5043599;28;20025;-43
2022/09/21 09:24:16;;;;;;;5.45;2.00;;;31.90;51.80;;;;;;5035561;28;20061;-43
2022/09/21 09:26:45;;;;;;;2.83;1.70;;;31.80;51.70;;;;;;5045185;28;20025;-45
2022/09/21 09:29:20;;;;;;;3.05;1.70;;;31.90;51.50;;;;;;5049230;28;20048;-43
2022/09/21 09:31:47;;;;;;;3.65;2.00;;;32.50;52.00;;;;;;5047765;28;20495;-43
2022/09/21 09:34:28;;;;;;;3.58;1.92;;;32.90;52.20;;;;;;5043298;28;20424;-45
2022/09/21 09:36:58;;;;;;;4.07;2.70;;;32.80;50.20;;;;;;5045982;28;20025;-42
2022/09/21 09:39:25;;;;;;;6.28;2.60;;;32.10;50.70;;;;;;5048827;28;20017;-44
2022/09/21 09:42:20;;;;;;;4.47;2.25;;;32.20;52.70;;;;;;5050152;28;20039;-43
2022/09/21 09:45:24;;;;;;;6.43;2.75;;;32.40;51.90;;;;;;5050076;28;20074;-44
2022/09/21 09:47:57;;;;;;;5.45;2.58;;;32.00;52.70;;;;;;5050074;28;20119;-43
2022/09/21 09:50:32;;;;;;;4.70;2.70;;;32.00;53.70;;;;;;5050037;28;20534;-44
2022/09/21 09:53:04;;;;;;;5.10;2.70;;;32.30;51.80;;;;;;5048243;28;20087;-44
2022/09/21 09:55:59;;;;;;;5.10;2.63;;;31.70;53.50;;;;;;5042903;28;20066;-50
2022/09/21 09:58:28;;;;;;;4.82;2.38;;;31.40;53.70;;;;;;5037369;28;20702;-46
2022/09/21 10:00:55;;;;;;;4.97;2.17;;;31.60;55.40;;;;;;5050642;28;20021;-45
2022/09/21 10:03:27;;;;;;;4.20;2.20;;;32.30;55.60;;;;;;5050124;28;20554;-44
2022/09/21 10:05:53;;;;;;;3.88;2.13;;;32.40;52.80;;;;;;5050214;28;20025;-50
2022/09/21 10:08:46;;;;;;;4.00;2.45;;;32.60;54.80;;;;;;5050183;28;20052;-43
2022/09/21 10:11:14;;;;;;;6.00;2.08;;;33.00;55.60;;;;;;5049289;28;20033;-47
2022/09/21 10:13:46;;;;;;;3.97;1.83;;;33.70;50.20;;;;;;5045168;28;20017;-52
2022/09/21 10:16:13;;;;;;;3.15;2.03;;;33.80;49.60;;;;;;5040926;28;20056;-50
2022/09/21 10:19:02;;;;;;;3.90;2.33;;;33.80;52.30;;;;;;5047465;28;20013;-49
2022/09/21 10:21:38;;;;;;;4.43;2.78;;;33.10;48.30;;;;;;5040653;28;20079;-46
2022/09/21 10:24:06;;;;;;;4.00;2.08;;;32.70;53.10;;;;;;5049972;28;20036;-45
2022/09/21 10:26:55;;;;;;;3.78;2.20;;;33.10;53.20;;;;;;5050357;28;20033;-46
2022/09/21 10:29:21;;;;;;;3.97;2.05;;;33.60;49.20;;;;;;5051387;28;20060;-49
2022/09/21 10:31:56;;;;;;;2.83;1.92;;;33.70;50.50;;;;;;5048818;28;20440;-46
2022/09/21 10:34:22;;;;;;;3.85;1.90;;;33.60;48.60;;;;;;5053063;28;20032;-48
2022/09/21 10:36:55;;;;;;;3.28;2.00;;;33.40;48.20;;;;;;5046182;28;20103;-48
2022/09/21 10:39:27;;;;;;;3.42;1.90;;;32.70;48.20;;;;;;5051350;28;20468;-45
2022/09/21 10:42:10;;;;;;;4.35;2.20;;;32.40;49.70;;;;;;5051975;28;20186;-50
2022/09/21 10:44:48;;;;;;;2.30;1.50;;;32.20;49.40;;;;;;5041756;28;20033;-47
2022/09/21 10:47:40;;;;;;;3.55;1.80;;;31.90;50.30;;;;;;5052934;28;20083;-53
2022/09/21 10:50:25;;;;;;;2.42;1.48;;;32.30;50.50;;;;;;5048956;28;20036;-47
2022/09/21 10:53:15;;;;;;;2.28;1.60;;;31.80;50.80;;;;;;5044806;28;20068;-49
2022/09/21 10:55:59;;;;;;;2.45;1.73;;;32.30;48.00;;;;;;5042639;28;20056;-45
2022/09/21 10:58:26;;;;;;;3.15;1.58;;;32.30;48.50;;;;;;5051153;28;20021;-48
2022/09/21 11:00:54;;;;;;;3.80;1.80;;;32.20;51.20;;;;;;5052486;28;20036;-50
2022/09/21 11:03:29;;;;;;;2.97;1.67;;;31.20;49.50;;;;;;5052159;28;20476;-47
2022/09/21 11:06:03;;;;;;;4.10;1.52;;;29.50;49.00;;;;;;5052429;28;20047;-47
2022/09/21 11:08:53;;;;;;;2.20;1.20;;;28.20;53.00;;;;;;5054626;28;20390;-46
2022/09/21 11:11:28;;;;;;;2.60;1.10;;;27.10;57.40;;;;;;5052789;28;20438;-47
2022/09/21 11:14:15;;;;;;;4.10;1.40;;;25.90;59.60;;;;;;5051091;28;20028;-46
2022/09/21 11:16:48;;;;;;;2.30;1.10;;;25.10;60.00;;;;;;5054269;28;20487;-51
2022/09/21 11:19:45;;;;;;;2.10;1.10;;;24.40;61.30;;;;;;5048984;28;20071;-49
2022/09/21 11:22:23;;;;;;;2.17;1.13;;;24.20;65.00;;;;;;5050633;28;20025;-52
2022/09/21 11:24:57;;;;;;;1.80;1.15;;;23.80;63.40;;;;;;5057943;28;20016;-49
2022/09/21 11:27:43;;;;;;;1.85;1.20;;;23.60;67.60;;;;;;5053120;28;20035;-48
2022/09/21 11:30:17;;;;;;;1.65;1.20;;;23.20;67.20;;;;;;5050000;28;20045;-47
2022/09/21 11:33:01;;;;;;;2.33;1.20;;;22.90;64.60;;;;;;5053699;28;20025;-49
2022/09/21 11:35:45;;;;;;;2.15;1.40;;;22.70;66.10;;;;;;5049164;28;20104;-47
2022/09/21 11:38:42;;;;;;;2.00;1.13;;;22.50;69.20;;;;;;5042908;28;20120;-46
2022/09/21 11:41:08;;;;;;;2.83;1.50;;;22.50;74.20;;;;;;5049498;28;20110;-46
2022/09/21 11:43:51;;;;;;;2.70;1.48;;;22.30;69.10;;;;;;5051080;28;20045;-47
2022/09/21 11:47:02;;;;;;;4.68;1.88;;;22.20;72.70;;;;;;5050132;28;20032;-49
2022/09/21 11:50:06;;;;;;;2.97;1.70;;;22.30;72.60;;;;;;5036438;28;20051;-47
2022/09/21 11:53:06;;;;;;;2.78;1.60;;;22.20;70.60;;;;;;5026836;28;20052;-46
2022/09/21 11:55:53;;;;;;;4.85;1.92;;;22.30;73.70;;;;;;5048077;28;20472;-54
2022/09/21 11:58:30;;;;;;;4.70;2.30;;;22.30;71.40;;;;;;5050166;28;20032;-51
2022/09/21 12:01:31;;;;;;;4.55;2.00;;;22.20;71.30;;;;;;5049811;28;20162;-45
2022/09/21 12:04:14;;;;;;;4.68;2.55;;;22.40;75.90;;;;;;5048714;28;20103;-52
2022/09/21 12:06:51;;;;;;;5.95;1.98;;;22.30;72.60;;;;;;5048993;28;20017;-48
2022/09/21 12:09:17;;;;;;;3.97;1.95;;;22.20;73.00;;;;;;5051998;28;20109;-46
2022/09/21 12:12:08;;;;;;;3.35;1.60;;;22.00;73.60;;;;;;5051910;28;20116;-51
2022/09/21 12:14:45;;;;;;;2.70;1.65;;;21.80;74.30;;;;;;5052036;28;20017;-55
2022/09/21 12:17:33;;;;;;;4.55;2.03;;;21.50;78.90;;;;;;5052011;28;20053;-49
2022/09/21 12:20:23;;;;;;;4.43;1.80;;;21.50;77.40;;;;;;5051758;28;20087;-48
2022/09/21 12:22:56;;;;;;;2.88;1.50;;;21.40;76.40;;;;;;5045891;28;20028;-45
2022/09/21 12:25:34;;;;;;;3.10;1.35;;;21.30;75.60;;;;;;5052206;28;20040;-52
2022/09/21 12:28:13;;;;;;;1.30;1.00;;;21.10;76.70;;;;;;5038820;28;20075;-51
2022/09/21 12:30:43;;;;;;;2.03;1.20;;;21.00;78.50;;;;;;5051378;28;20025;-49
2022/09/21 12:33:34;;;;;;;2.75;1.50;;;20.90;77.80;;;;;;5051786;28;20277;-46
2022/09/21 12:36:08;;;;;;;2.30;1.30;;;20.70;78.50;;;;;;5051640;28;20044;-48
2022/09/21 12:38:40;;;;;;;3.03;1.33;;;20.60;80.40;;;;;;5051406;28;20325;-45
2022/09/21 12:41:28;;;;;;;2.65;1.42;;;20.50;80.70;;;;;;5050094;28;20032;-50
2022/09/21 12:43:56;;;;;;;2.72;1.48;;;20.50;81.50;;;;;;5051600;28;20178;-45
2022/09/21 12:46:25;;;;;;;8.02;1.67;;;20.40;79.20;;;;;;5051623;28;20021;-47
2022/09/21 12:48:51;;;;;;;4.90;1.80;;;20.20;80.70;;;;;;5050953;28;20071;-48
2022/09/21 12:51:31;;;;;;;4.45;1.95;;;20.20;82.10;;;;;;5049767;28;20040;-45
2022/09/21 12:54:00;;;;;;;4.60;2.22;;;20.10;85.80;;;;;;5050822;28;20029;-52
2022/09/21 12:56:31;;;;;;;6.15;2.20;;;20.00;83.50;;;;;;5048804;28;20017;-52
2022/09/21 12:59:03;;;;;;;5.63;2.20;;;20.00;83.80;;;;;;5048320;28;20096;-51
2022/09/21 13:01:40;;;;;;;6.88;2.28;;;20.00;83.90;;;;;;5051022;28;20021;-48
2022/09/21 13:04:37;;;;;;;4.75;2.00;;;19.90;82.80;;;;;;5051081;28;20391;-51
2022/09/21 13:07:06;;;;;;;4.57;1.98;;;19.90;87.10;;;;;;5039895;28;20060;-47
2022/09/21 13:09:33;;;;;;;3.70;1.63;;;19.90;87.70;;;;;;5051213;28;20025;-49
2022/09/21 13:12:06;;;;;;;3.30;1.67;;;19.90;86.20;;;;;;5050982;28;20483;-48
2022/09/21 13:14:35;;;;;;;4.63;1.30;;;19.90;86.90;;;;;;5050912;28;20412;-53
2022/09/21 13:17:03;;;;;;;3.25;1.63;;;20.00;89.80;;;;;;5050343;28;20601;-49
2022/09/21 13:19:32;;;;;;;3.03;1.70;;;20.10;86.30;;;;;;5050451;28;20029;-47
2022/09/21 13:22:13;;;;;;;2.95;1.75;;;20.10;86.00;;;;;;5050169;28;20096;-49
2022/09/21 13:24:41;;;;;;;4.00;2.08;;;20.10;88.40;;;;;;5050337;28;20023;-47